Time;durP1;ratioP1;P1;durP2;ratioP2;P2;SDS_P1;SDS_P2;PMS_P1;PMS_P2;Temp;Humidity;BMP_temperature;BMP_pressure;BME280_temperature;BME280_humidity;BME280_pressure;Samples;Min_cycle;Max_cycle;Signal;HPM_P1;HPM_P2
2022/12/29 00:00:12;;;;;;;1.47;1.37;;;11.40;99.90;;;;;;5065338;28;20238;-93
2022/12/29 00:02:42;;;;;;;1.30;1.20;;;11.40;99.90;;;;;;5047652;28;20276;-90
2022/12/29 00:05:14;;;;;;;1.43;1.37;;;11.40;99.90;;;;;;5046995;28;20212;-92
2022/12/29 00:08:14;;;;;;;1.07;1.03;;;11.40;99.90;;;;;;5069443;28;20254;-91
2022/12/29 00:10:41;;;;;;;2.08;1.70;;;11.40;99.90;;;;;;5054934;28;20476;-92
2022/12/29 00:16:59;;;;;;;1.60;1.00;;;11.60;99.90;;;;;;5067655;28;20635;-93
2022/12/29 00:44:06;;;;;;;1.13;1.03;;;11.90;99.90;;;;;;5067570;28;20189;-92
2022/12/29 00:46:42;;;;;;;1.43;1.00;;;11.90;99.90;;;;;;5071999;28;20208;-94
2022/12/29 00:52:16;;;;;;;1.90;1.10;;;11.90;99.90;;;;;;5067913;28;20203;-91
2022/12/29 00:55:10;;;;;;;1.67;1.03;;;11.90;99.90;;;;;;5064950;28;20217;-94
2022/12/29 00:57:44;;;;;;;2.77;0.90;;;11.90;99.90;;;;;;5055853;28;20221;-94
2022/12/29 01:00:13;;;;;;;2.13;1.10;;;11.90;99.90;;;;;;5045438;28;20243;-94
2022/12/29 01:02:45;;;;;;;3.40;1.17;;;11.90;99.90;;;;;;5063700;28;20303;-94
2022/12/29 01:05:18;;;;;;;3.70;1.00;;;12.00;99.90;;;;;;5065145;28;20264;-92
2022/12/29 01:07:48;;;;;;;3.50;1.07;;;12.00;99.90;;;;;;5062210;28;20215;-94
2022/12/29 01:10:18;;;;;;;4.60;1.47;;;11.90;99.90;;;;;;5043227;28;20220;-93
2022/12/29 01:12:51;;;;;;;2.47;1.20;;;12.00;99.90;;;;;;5059573;28;20212;-90
2022/12/29 01:19:04;;;;;;;3.33;1.10;;;11.80;99.90;;;;;;5072562;28;20212;-91
2022/12/29 01:21:34;;;;;;;4.67;1.33;;;11.70;99.90;;;;;;5076810;28;20199;-93
2022/12/29 01:24:19;;;;;;;1.83;1.27;;;11.50;99.90;;;;;;5077516;28;20214;-91
2022/12/29 01:26:56;;;;;;;2.17;0.90;;;11.50;99.90;;;;;;5075287;28;20191;-92
2022/12/29 01:30:08;;;;;;;3.27;1.30;;;11.40;99.90;;;;;;5074611;28;20230;-92
2022/12/29 01:36:42;;;;;;;2.53;1.60;;;11.40;99.90;;;;;;5070836;28;20467;-94
2022/12/29 01:39:53;;;;;;;3.17;1.10;;;11.50;99.90;;;;;;5067400;28;20234;-92
2022/12/29 01:42:45;;;;;;;1.77;0.87;;;11.50;99.90;;;;;;5066348;28;20245;-92
2022/12/29 01:48:44;;;;;;;2.67;0.97;;;11.50;99.90;;;;;;5043940;28;20211;-95
2022/12/29 01:52:05;;;;;;;1.40;0.77;;;11.50;99.90;;;;;;5044844;28;20678;-92
2022/12/29 01:54:36;;;;;;;3.83;0.77;;;11.40;99.90;;;;;;5053954;28;20298;-93
2022/12/29 01:57:21;;;;;;;2.33;1.08;;;11.40;99.90;;;;;;5049461;28;20469;-89
2022/12/29 01:59:59;;;;;;;3.23;0.97;;;11.40;99.90;;;;;;5045008;28;20236;-91
2022/12/29 02:02:47;;;;;;;1.37;0.83;;;11.40;99.90;;;;;;5062271;28;20204;-93
2022/12/29 02:05:41;;;;;;;2.80;0.93;;;11.20;99.90;;;;;;5063699;28;20218;-94
2022/12/29 02:08:23;;;;;;;2.70;0.80;;;11.20;99.90;;;;;;5065959;28;20230;-93
2022/12/29 02:10:50;;;;;;;1.60;0.80;;;11.20;99.90;;;;;;5065045;28;20724;-93
2022/12/29 02:13:38;;;;;;;1.93;0.70;;;11.10;99.90;;;;;;5050123;28;20180;-92
2022/12/29 02:16:46;;;;;;;4.83;1.13;;;11.10;99.90;;;;;;5070571;28;20214;-91
2022/12/29 02:20:07;;;;;;;3.15;1.17;;;11.10;99.90;;;;;;5051261;28;20442;-93
2022/12/29 02:26:24;;;;;;;2.83;0.93;;;11.20;99.90;;;;;;5052117;28;20196;-92
2022/12/29 02:32:47;;;;;;;1.00;0.73;;;11.00;99.90;;;;;;5053021;28;20202;-92
2022/12/29 02:35:55;;;;;;;3.93;0.97;;;10.90;99.90;;;;;;5052915;28;20200;-89
2022/12/29 02:39:18;;;;;;;3.63;1.13;;;10.90;99.90;;;;;;5054431;28;20409;-92
2022/12/29 02:49:09;;;;;;;1.27;0.63;;;10.80;99.90;;;;;;5012868;28;20215;-93
2022/12/29 02:52:33;;;;;;;4.07;1.10;;;10.80;99.90;;;;;;5013799;28;20610;-90
2022/12/29 03:02:17;;;;;;;3.00;0.77;;;10.70;99.90;;;;;;5013294;28;20213;-89
2022/12/29 03:19:03;;;;;;;5.10;0.90;;;10.70;99.90;;;;;;5015458;28;20220;-93
2022/12/29 03:22:31;;;;;;;2.60;1.08;;;10.70;99.90;;;;;;5048004;28;20414;-92
2022/12/29 03:25:17;;;;;;;6.27;1.07;;;10.70;99.90;;;;;;5036545;28;20225;-94
2022/12/29 03:28:21;;;;;;;4.57;1.40;;;10.80;99.90;;;;;;5074581;28;20233;-93
2022/12/29 03:31:20;;;;;;;3.87;0.90;;;10.70;99.90;;;;;;5075806;28;20234;-89
2022/12/29 03:34:30;;;;;;;4.40;0.97;;;10.70;99.90;;;;;;5076051;28;20210;-93
2022/12/29 03:37:05;;;;;;;4.40;1.17;;;10.70;99.90;;;;;;5075793;28;20191;-91
2022/12/29 03:46:38;;;;;;;6.63;1.83;;;10.70;99.90;;;;;;5048803;28;20199;-90
2022/12/29 03:49:12;;;;;;;5.03;1.53;;;10.70;99.90;;;;;;5047643;28;20240;-92
2022/12/29 03:51:45;;;;;;;6.00;1.23;;;10.70;99.90;;;;;;5060177;28;20221;-91
2022/12/29 03:54:21;;;;;;;4.57;1.13;;;10.70;99.90;;;;;;5059998;28;20207;-92
2022/12/29 03:56:54;;;;;;;6.87;1.17;;;10.70;99.90;;;;;;5060467;28;20646;-92
2022/12/29 03:59:24;;;;;;;6.63;1.43;;;10.70;99.90;;;;;;5059813;28;20222;-92
2022/12/29 04:01:54;;;;;;;5.83;1.50;;;10.70;99.90;;;;;;5060508;28;20206;-92
2022/12/29 04:04:24;;;;;;;4.13;1.27;;;10.70;99.90;;;;;;5060864;28;20553;-92
2022/12/29 04:07:05;;;;;;;4.82;1.45;;;10.60;99.90;;;;;;5058879;28;20505;-92
2022/12/29 04:09:38;;;;;;;4.13;1.40;;;10.70;99.90;;;;;;5046148;28;20592;-92
2022/12/29 04:12:07;;;;;;;5.00;1.93;;;10.70;99.90;;;;;;5059281;28;20283;-90
2022/12/29 04:15:08;;;;;;;3.60;0.90;;;10.60;99.90;;;;;;5064816;28;20215;-90
2022/12/29 04:17:35;;;;;;;4.23;0.93;;;10.60;99.90;;;;;;5059284;28;20191;-93
2022/12/29 04:23:23;;;;;;;4.40;1.30;;;10.60;99.90;;;;;;5077351;28;20233;-91
2022/12/29 04:26:17;;;;;;;4.67;1.07;;;10.60;99.90;;;;;;5079974;28;20187;-92
2022/12/29 04:29:02;;;;;;;3.43;1.00;;;10.70;99.90;;;;;;5079962;28;20187;-93
2022/12/29 04:31:41;;;;;;;2.70;0.87;;;10.70;99.90;;;;;;5074809;28;20199;-92
2022/12/29 04:34:11;;;;;;;3.53;0.90;;;10.70;99.90;;;;;;5054110;28;20214;-92
2022/12/29 04:36:51;;;;;;;4.03;1.10;;;10.70;99.90;;;;;;5072837;28;20183;-90
2022/12/29 04:39:36;;;;;;;4.93;1.13;;;10.70;99.90;;;;;;5071421;28;20269;-93
2022/12/29 04:42:07;;;;;;;2.40;1.00;;;10.80;99.90;;;;;;5070113;28;20240;-91
2022/12/29 04:44:46;;;;;;;3.10;1.20;;;10.80;99.90;;;;;;5072681;28;20207;-92
2022/12/29 04:47:46;;;;;;;4.27;0.90;;;10.80;99.90;;;;;;5073716;28;20190;-92
2022/12/29 04:56:58;;;;;;;3.50;0.80;;;10.70;99.90;;;;;;5054103;28;20206;-90
2022/12/29 04:59:34;;;;;;;4.23;1.40;;;10.70;99.90;;;;;;5053200;28;20255;-91
2022/12/29 05:02:25;;;;;;;4.70;0.93;;;10.80;99.90;;;;;;5051948;28;20206;-91
2022/12/29 05:04:54;;;;;;;3.87;1.17;;;10.80;99.90;;;;;;5056902;28;20226;-91
2022/12/29 05:10:29;;;;;;;4.67;1.27;;;10.80;99.90;;;;;;5069568;28;20273;-94
2022/12/29 05:13:15;;;;;;;5.55;1.50;;;10.80;99.90;;;;;;5068529;28;20521;-95
2022/12/29 05:16:11;;;;;;;3.30;0.80;;;10.80;99.90;;;;;;5066206;28;20262;-93
2022/12/29 05:18:46;;;;;;;2.00;0.80;;;10.80;99.90;;;;;;5069135;28;20206;-95
2022/12/29 05:21:27;;;;;;;2.47;0.90;;;10.90;99.90;;;;;;5067695;28;20253;-90
2022/12/29 05:36:16;;;;;;;3.83;1.00;;;10.70;99.90;;;;;;5042284;28;20205;-90
2022/12/29 05:38:51;;;;;;;6.53;1.40;;;10.80;99.90;;;;;;5070701;28;20186;-93
2022/12/29 05:41:25;;;;;;;6.73;1.47;;;10.80;99.90;;;;;;5075099;28;20206;-92
2022/12/29 05:43:53;;;;;;;3.63;1.27;;;10.80;99.90;;;;;;5077740;28;20191;-91
2022/12/29 05:46:50;;;;;;;5.00;1.47;;;10.90;99.90;;;;;;5076499;28;20204;-92
2022/12/29 05:52:43;;;;;;;4.77;1.50;;;10.70;99.90;;;;;;5059504;28;20271;-91
2022/12/29 05:55:41;;;;;;;6.70;1.90;;;10.70;99.90;;;;;;5057541;28;20273;-92
2022/12/29 06:00:56;;;;;;;4.37;1.60;;;10.80;99.90;;;;;;5062119;28;20239;-92
2022/12/29 06:04:01;;;;;;;4.73;1.37;;;10.80;99.90;;;;;;5057339;28;20211;-92
2022/12/29 06:06:30;;;;;;;6.97;1.50;;;10.70;99.90;;;;;;5063807;28;20210;-93
2022/12/29 06:17:45;;;;;;;8.27;1.70;;;10.80;99.90;;;;;;5056798;28;20215;-90
2022/12/29 06:29:36;;;;;;;8.47;2.13;;;10.90;99.90;;;;;;5072992;28;20217;-89
2022/12/29 06:33:05;;;;;;;4.03;1.80;;;10.90;99.90;;;;;;5071904;28;20206;-90
2022/12/29 06:36:01;;;;;;;3.83;1.90;;;10.90;99.90;;;;;;5073047;28;20202;-94
2022/12/29 06:38:52;;;;;;;7.20;1.67;;;10.80;99.90;;;;;;5073880;28;20206;-92
2022/12/29 06:41:40;;;;;;;8.70;2.30;;;10.90;99.90;;;;;;5074917;28;20472;-91
2022/12/29 06:44:11;;;;;;;11.27;2.27;;;10.90;99.90;;;;;;5074955;28;20188;-93
2022/12/29 06:46:50;;;;;;;10.43;1.67;;;10.90;99.90;;;;;;5074211;28;20202;-92
2022/12/29 06:49:17;;;;;;;11.53;2.20;;;10.90;99.90;;;;;;5073041;28;20216;-91
2022/12/29 06:51:48;;;;;;;7.40;1.73;;;11.00;99.90;;;;;;5058453;28;20222;-91
2022/12/29 06:54:36;;;;;;;5.63;2.10;;;11.00;99.90;;;;;;5066344;28;20231;-92
2022/12/29 06:57:32;;;;;;;4.07;1.33;;;10.90;99.90;;;;;;5068262;28;20199;-92
2022/12/29 07:00:13;;;;;;;8.43;1.97;;;10.90;99.90;;;;;;5071564;28;20235;-92
2022/12/29 07:05:50;;;;;;;7.03;2.17;;;10.90;99.90;;;;;;5074905;28;20430;-93
2022/12/29 07:08:50;;;;;;;7.00;1.57;;;11.00;99.90;;;;;;5075016;28;20207;-91
2022/12/29 07:12:01;;;;;;;5.43;2.00;;;11.00;99.90;;;;;;5077867;28;20697;-93
2022/12/29 07:15:05;;;;;;;5.77;1.57;;;11.00;99.90;;;;;;5059665;28;20236;-91
2022/12/29 07:18:10;;;;;;;12.93;1.83;;;11.00;99.90;;;;;;5074952;28;20270;-91
2022/12/29 07:23:38;;;;;;;6.13;2.43;;;11.00;99.90;;;;;;5072991;28;20218;-92
2022/12/29 07:26:23;;;;;;;5.20;1.67;;;11.00;99.90;;;;;;5055144;28;20206;-93
2022/12/29 07:28:56;;;;;;;8.50;1.43;;;10.90;99.90;;;;;;5069043;28;20198;-91
2022/12/29 07:31:30;;;;;;;12.27;2.57;;;10.90;99.90;;;;;;5068497;28;20242;-91
2022/12/29 07:34:03;;;;;;;6.67;1.70;;;11.00;99.90;;;;;;5068772;28;20605;-91
2022/12/29 07:36:31;;;;;;;9.47;1.93;;;11.00;99.90;;;;;;5046633;28;20202;-94
2022/12/29 07:38:58;;;;;;;11.70;2.57;;;11.10;99.90;;;;;;5064279;28;20231;-92
2022/12/29 07:44:14;;;;;;;6.10;1.90;;;11.10;99.90;;;;;;5062855;28;20679;-92
2022/12/29 07:46:49;;;;;;;8.77;1.80;;;11.10;99.90;;;;;;5065151;28;20232;-94
2022/12/29 07:49:28;;;;;;;9.67;2.17;;;11.00;99.90;;;;;;5065451;28;20233;-91
2022/12/29 07:55:00;;;;;;;5.50;1.50;;;11.10;99.90;;;;;;5063219;28;20242;-93
2022/12/29 07:57:32;;;;;;;8.60;1.67;;;11.10;99.90;;;;;;5067105;28;20207;-91
2022/12/29 08:02:59;;;;;;;8.27;2.37;;;11.10;99.90;;;;;;5070101;28;20207;-92
2022/12/29 08:05:47;;;;;;;5.37;2.20;;;11.10;99.90;;;;;;5072814;28;20207;-93
2022/12/29 08:08:14;;;;;;;5.20;1.80;;;11.10;99.90;;;;;;5073251;28;20194;-91
2022/12/29 08:10:43;;;;;;;8.10;2.00;;;11.10;99.90;;;;;;5062402;28;20250;-93
2022/12/29 08:13:32;;;;;;;10.07;1.75;;;11.10;99.90;;;;;;5063726;28;20444;-92
2022/12/29 08:16:00;;;;;;;8.63;2.10;;;11.00;99.90;;;;;;5061478;28;20200;-93
2022/12/29 08:18:39;;;;;;;9.13;2.10;;;11.00;99.90;;;;;;5071713;28;20218;-89
2022/12/29 08:21:37;;;;;;;9.47;2.40;;;11.00;99.90;;;;;;5048194;28;20219;-91
2022/12/29 08:24:57;;;;;;;8.63;1.83;;;11.10;99.90;;;;;;5052905;28;20226;-92
2022/12/29 08:30:46;;;;;;;7.77;2.20;;;11.00;99.90;;;;;;5066551;28;20265;-90
2022/12/29 08:33:19;;;;;;;10.53;1.63;;;11.00;99.90;;;;;;5058197;28;20254;-92
2022/12/29 08:39:19;;;;;;;12.85;3.00;;;10.90;99.90;;;;;;5049716;28;20431;-91
2022/12/29 08:45:48;;;;;;;11.73;2.77;;;10.70;99.90;;;;;;5075760;28;20273;-90
2022/12/29 08:51:39;;;;;;;6.37;2.13;;;10.50;99.90;;;;;;5051962;28;20238;-91
2022/12/29 08:54:27;;;;;;;10.10;2.10;;;10.50;99.90;;;;;;5053624;28;20207;-95
2022/12/29 08:57:11;;;;;;;7.93;1.37;;;10.40;99.90;;;;;;5021151;28;20211;-91
2022/12/29 08:59:46;;;;;;;9.00;2.23;;;10.30;99.90;;;;;;5047500;28;20230;-90
2022/12/29 09:02:20;;;;;;;12.00;3.25;;;10.20;99.90;;;;;;5075021;28;20437;-91
2022/12/29 09:05:14;;;;;;;12.63;2.70;;;10.20;99.90;;;;;;5076251;28;20221;-93
2022/12/29 09:11:20;;;;;;;10.20;2.40;;;10.00;99.90;;;;;;5064462;28;20226;-92
2022/12/29 09:13:49;;;;;;;11.30;2.73;;;9.90;99.90;;;;;;5070710;28;20210;-93
2022/12/29 09:16:18;;;;;;;7.63;1.80;;;10.00;99.90;;;;;;5063738;28;20274;-90
2022/12/29 09:18:46;;;;;;;11.87;2.57;;;9.90;99.90;;;;;;5065857;28;20214;-92
2022/12/29 09:21:15;;;;;;;6.17;2.07;;;10.00;99.90;;;;;;5069206;28;20237;-92
2022/12/29 09:23:52;;;;;;;9.40;2.53;;;10.00;99.90;;;;;;5072043;28;20209;-91
2022/12/29 09:26:34;;;;;;;16.10;2.50;;;10.10;99.90;;;;;;5064995;28;20210;-91
2022/12/29 09:31:59;;;;;;;9.03;2.37;;;10.10;99.90;;;;;;5068684;28;20222;-91
2022/12/29 09:35:00;;;;;;;9.30;2.00;;;10.00;99.90;;;;;;5049144;28;20214;-95
2022/12/29 09:37:28;;;;;;;15.93;2.73;;;9.90;99.90;;;;;;5067295;28;20576;-90
2022/12/29 09:40:25;;;;;;;12.50;2.30;;;9.80;99.90;;;;;;5068347;28;20226;-91
2022/12/29 09:43:28;;;;;;;10.50;2.37;;;9.70;99.90;;;;;;5063614;28;20210;-92
2022/12/29 09:46:06;;;;;;;11.07;2.87;;;9.70;99.90;;;;;;5045966;28;20217;-91
2022/12/29 09:48:39;;;;;;;11.68;2.67;;;9.80;99.90;;;;;;5041996;28;20446;-90
2022/12/29 09:51:11;;;;;;;13.07;3.47;;;9.80;99.90;;;;;;5062203;28;20276;-90
2022/12/29 09:53:45;;;;;;;15.40;2.90;;;9.90;99.90;;;;;;5063854;28;20206;-91
2022/12/29 09:56:22;;;;;;;7.90;2.57;;;10.00;99.90;;;;;;5053393;28;20242;-90
2022/12/29 09:58:59;;;;;;;15.27;2.87;;;10.10;99.90;;;;;;5044137;28;20810;-93
2022/12/29 10:01:32;;;;;;;7.47;2.13;;;10.20;99.90;;;;;;5061887;28;20236;-90
2022/12/29 10:04:04;;;;;;;11.83;2.10;;;10.30;99.90;;;;;;5062143;28;20316;-93
2022/12/29 10:06:40;;;;;;;18.43;3.13;;;10.30;99.90;;;;;;5062559;28;20202;-92
2022/12/29 10:09:16;;;;;;;10.50;2.30;;;10.30;99.90;;;;;;5047814;28;20236;-91
2022/12/29 10:12:03;;;;;;;10.70;2.60;;;10.40;99.90;;;;;;5061843;28;20243;-91
2022/12/29 10:15:01;;;;;;;8.03;2.20;;;10.40;99.90;;;;;;5067955;28;20215;-91
2022/12/29 10:17:49;;;;;;;13.33;2.43;;;10.50;99.90;;;;;;5065659;28;20207;-92
2022/12/29 10:20:53;;;;;;;7.77;2.10;;;10.40;99.90;;;;;;5063065;28;20218;-91
2022/12/29 10:23:30;;;;;;;11.30;2.40;;;10.60;99.90;;;;;;5059909;28;20264;-92
2022/12/29 10:26:16;;;;;;;11.87;2.60;;;10.70;99.90;;;;;;5064979;28;20210;-92
2022/12/29 10:32:23;;;;;;;6.10;1.70;;;10.80;99.90;;;;;;5064855;28;20237;-92
2022/12/29 10:37:56;;;;;;;7.90;2.10;;;10.90;99.90;;;;;;5059622;28;20289;-91
2022/12/29 10:46:34;;;;;;;12.00;2.40;;;11.10;99.90;;;;;;5073758;28;20207;-91
2022/12/29 10:51:52;;;;;;;10.63;2.30;;;11.10;99.90;;;;;;5070559;28;20294;-91
2022/12/29 10:54:34;;;;;;;11.80;2.57;;;11.10;99.90;;;;;;5064042;28;20635;-90
2022/12/29 10:57:29;;;;;;;9.00;2.17;;;11.10;99.90;;;;;;5066499;28;20286;-92
2022/12/29 11:00:08;;;;;;;9.07;2.43;;;11.10;99.90;;;;;;5065637;28;20290;-91
2022/12/29 11:03:14;;;;;;;9.87;2.33;;;11.10;99.90;;;;;;5065897;28;20218;-91
2022/12/29 11:05:49;;;;;;;13.80;2.80;;;11.10;99.90;;;;;;5013385;28;20261;-90
2022/12/29 11:08:24;;;;;;;7.37;2.43;;;11.00;99.90;;;;;;5059508;28;20208;-91
2022/12/29 11:11:00;;;;;;;7.87;2.50;;;11.00;99.90;;;;;;5053610;28;20254;-91
2022/12/29 11:13:29;;;;;;;11.23;2.63;;;11.10;99.90;;;;;;5059757;28;20298;-94
2022/12/29 11:16:20;;;;;;;8.00;2.20;;;11.00;99.90;;;;;;5066459;28;20196;-95
2022/12/29 11:21:49;;;;;;;9.50;2.67;;;11.10;99.90;;;;;;5104216;22;20236;-92
2022/12/29 11:27:20;;;;;;;14.90;3.83;;;11.20;99.90;;;;;;5096040;28;20432;-91
2022/12/29 11:29:49;;;;;;;7.47;2.43;;;11.30;99.90;;;;;;5092227;28;20273;-90
2022/12/29 11:32:25;;;;;;;8.73;2.50;;;11.20;99.90;;;;;;5073651;28;20227;-92
2022/12/29 11:34:52;;;;;;;13.67;2.43;;;11.20;99.90;;;;;;5070026;28;20210;-92
2022/12/29 11:37:29;;;;;;;9.63;1.97;;;11.30;99.90;;;;;;5074282;28;20201;-93
2022/12/29 11:40:04;;;;;;;10.73;2.40;;;11.20;99.90;;;;;;5059852;28;20285;-91
2022/12/29 11:42:36;;;;;;;7.73;2.67;;;11.20;99.90;;;;;;5050002;28;20206;-91
2022/12/29 11:45:07;;;;;;;11.10;2.53;;;11.10;99.90;;;;;;5047313;28;20642;-91
2022/12/29 11:47:36;;;;;;;12.47;2.27;;;11.10;99.90;;;;;;5062138;28;20298;-92
2022/12/29 11:50:06;;;;;;;12.87;3.10;;;11.10;99.90;;;;;;5041187;28;20218;-91
2022/12/29 11:55:22;;;;;;;10.83;3.00;;;11.40;99.90;;;;;;5059247;28;20208;-91
2022/12/29 11:57:53;;;;;;;7.70;2.50;;;11.50;99.90;;;;;;5030374;28;20212;-91
2022/12/29 12:00:24;;;;;;;7.97;2.27;;;11.40;99.90;;;;;;5048351;28;20232;-90
2022/12/29 12:02:59;;;;;;;13.43;2.78;;;11.40;99.90;;;;;;5046587;28;20441;-90
2022/12/29 12:05:41;;;;;;;8.27;2.20;;;11.30;99.90;;;;;;5046773;28;20213;-90
2022/12/29 12:08:15;;;;;;;8.50;2.20;;;11.30;99.90;;;;;;5079567;28;20236;-91
2022/12/29 12:10:48;;;;;;;8.47;2.23;;;11.30;99.90;;;;;;5059356;28;20327;-95
2022/12/29 12:13:29;;;;;;;8.23;2.20;;;11.30;99.90;;;;;;5072566;28;20200;-92
2022/12/29 12:16:03;;;;;;;8.97;2.03;;;11.10;99.90;;;;;;5059378;28;20204;-90
2022/12/29 12:18:43;;;;;;;10.73;2.50;;;11.00;99.90;;;;;;5064058;28;20227;-94
2022/12/29 12:21:22;;;;;;;12.13;2.10;;;11.00;99.90;;;;;;5067415;28;20223;-92
2022/12/29 12:24:26;;;;;;;8.80;2.00;;;11.00;99.90;;;;;;5054107;28;20226;-93
2022/12/29 12:27:00;;;;;;;9.13;1.97;;;11.20;99.90;;;;;;5059654;28;20199;-90
2022/12/29 12:29:36;;;;;;;9.03;1.97;;;11.30;99.90;;;;;;5064912;28;20228;-91
2022/12/29 12:32:16;;;;;;;6.23;1.60;;;11.30;99.90;;;;;;5079107;28;20219;-89
2022/12/29 12:34:45;;;;;;;8.23;2.00;;;11.30;99.90;;;;;;5064224;28;20270;-90
2022/12/29 12:37:39;;;;;;;7.43;1.97;;;11.10;99.90;;;;;;5078473;28;20206;-93
2022/12/29 12:40:34;;;;;;;9.73;2.30;;;11.00;99.90;;;;;;5048598;28;20229;-91
2022/12/29 12:43:17;;;;;;;6.60;1.73;;;10.90;99.90;;;;;;5037852;28;20204;-91
2022/12/29 12:45:57;;;;;;;9.00;2.60;;;10.70;99.90;;;;;;5077905;28;20637;-93
2022/12/29 12:48:53;;;;;;;5.27;1.93;;;10.60;99.90;;;;;;5068616;28;20198;-91
2022/12/29 12:51:32;;;;;;;8.90;2.10;;;10.70;99.90;;;;;;5079712;28;20256;-91
2022/12/29 12:54:30;;;;;;;7.33;1.87;;;10.70;99.90;;;;;;5063949;28;20270;-90
2022/12/29 12:57:08;;;;;;;10.23;2.47;;;10.90;99.90;;;;;;5076990;28;20206;-90
2022/12/29 12:59:51;;;;;;;7.63;2.10;;;10.90;99.90;;;;;;5067268;28;20306;-89
2022/12/29 13:02:38;;;;;;;8.23;2.93;;;10.90;99.90;;;;;;5060795;28;20295;-88
2022/12/29 13:05:25;;;;;;;9.50;2.10;;;11.00;99.90;;;;;;5053118;28;20286;-92
2022/12/29 13:08:01;;;;;;;11.23;2.40;;;11.00;99.90;;;;;;5062217;28;20649;-91
2022/12/29 13:10:40;;;;;;;8.27;2.60;;;11.00;99.90;;;;;;5062411;28;20225;-92
2022/12/29 13:13:31;;;;;;;11.53;2.03;;;11.10;99.90;;;;;;5056519;28;20228;-92
2022/12/29 13:16:06;;;;;;;6.10;1.80;;;11.00;99.90;;;;;;5040230;28;20570;-91
2022/12/29 13:18:38;;;;;;;4.97;1.83;;;10.80;99.90;;;;;;5066596;28;20228;-91
2022/12/29 13:21:21;;;;;;;7.97;1.60;;;10.80;99.90;;;;;;5052977;28;20239;-91
2022/12/29 13:23:58;;;;;;;7.47;1.70;;;10.70;99.90;;;;;;5053225;28;20194;-93
2022/12/29 13:26:31;;;;;;;8.53;2.03;;;10.80;99.90;;;;;;5078957;28;20288;-91
2022/12/29 13:29:08;;;;;;;5.67;1.57;;;10.70;99.90;;;;;;5067717;28;20213;-92
2022/12/29 13:31:45;;;;;;;4.13;1.20;;;10.70;99.90;;;;;;5073868;28;20217;-90
2022/12/29 13:34:19;;;;;;;6.40;1.53;;;10.80;99.90;;;;;;5062983;28;20200;-93
2022/12/29 13:36:54;;;;;;;6.63;1.40;;;10.80;99.90;;;;;;5050416;28;20201;-90
2022/12/29 13:39:26;;;;;;;6.10;1.73;;;10.80;99.90;;;;;;5072962;28;20304;-92
2022/12/29 13:41:55;;;;;;;4.53;1.60;;;11.00;99.90;;;;;;5054340;28;20216;-92
2022/12/29 13:44:28;;;;;;;6.93;1.80;;;10.70;99.90;;;;;;5076416;28;20210;-90
2022/12/29 13:46:58;;;;;;;7.83;2.10;;;10.70;99.90;;;;;;5067565;28;20205;-92
2022/12/29 13:49:26;;;;;;;12.37;2.90;;;10.60;99.90;;;;;;5064142;28;20217;-91
2022/12/29 13:52:04;;;;;;;10.90;2.67;;;10.20;99.90;;;;;;5080807;28;20225;-90
2022/12/29 13:54:51;;;;;;;9.20;1.60;;;9.80;99.90;;;;;;5060712;28;20634;-93
2022/12/29 13:57:30;;;;;;;6.23;1.90;;;9.30;99.90;;;;;;5061899;28;20206;-90
2022/12/29 14:00:05;;;;;;;3.00;1.23;;;9.00;99.90;;;;;;5079411;28;20632;-92
2022/12/29 14:02:43;;;;;;;6.27;1.67;;;8.80;99.90;;;;;;5079378;28;20700;-92
2022/12/29 14:05:30;;;;;;;2.77;1.23;;;8.70;99.90;;;;;;5078519;28;20237;-90
2022/12/29 14:08:04;;;;;;;5.33;1.70;;;8.50;99.90;;;;;;5058828;28;20247;-92
2022/12/29 14:10:39;;;;;;;3.97;1.00;;;8.50;99.90;;;;;;5054551;28;20242;-88
2022/12/29 14:13:12;;;;;;;5.10;0.87;;;8.50;99.90;;;;;;5070535;28;20217;-90
2022/12/29 14:15:58;;;;;;;5.93;1.43;;;8.40;99.90;;;;;;5054578;28;20728;-91
2022/12/29 14:18:35;;;;;;;5.70;2.15;;;8.40;99.90;;;;;;5042428;28;20993;-91
2022/12/29 14:21:14;;;;;;;2.40;1.30;;;8.40;99.90;;;;;;5058492;28;20242;-89
2022/12/29 14:23:49;;;;;;;2.00;1.03;;;8.40;99.90;;;;;;5046200;28;20626;-90
2022/12/29 14:26:43;;;;;;;2.37;0.77;;;8.40;99.90;;;;;;5059197;28;20214;-91
2022/12/29 14:29:32;;;;;;;6.23;1.33;;;8.40;99.90;;;;;;5059622;28;20198;-90
2022/12/29 14:32:39;;;;;;;3.03;1.10;;;8.50;99.90;;;;;;5059501;28;20627;-91
2022/12/29 14:36:01;;;;;;;2.53;1.30;;;8.30;99.90;;;;;;5043872;28;20223;-90
2022/12/29 14:38:32;;;;;;;3.97;0.93;;;8.40;99.90;;;;;;4986774;28;20205;-89
2022/12/29 14:41:35;;;;;;;6.53;1.60;;;8.50;99.90;;;;;;5055236;28;20460;-91
2022/12/29 14:44:21;;;;;;;4.37;1.10;;;8.60;99.90;;;;;;5057963;28;20213;-90
2022/12/29 14:46:59;;;;;;;6.27;1.70;;;8.60;99.90;;;;;;5050787;28;20199;-91
2022/12/29 14:49:34;;;;;;;4.77;0.87;;;8.60;99.90;;;;;;5053251;28;20214;-89
2022/12/29 14:52:15;;;;;;;4.93;1.43;;;8.60;99.90;;;;;;5038720;28;20229;-90
2022/12/29 14:55:00;;;;;;;6.53;1.50;;;8.70;99.90;;;;;;5038765;28;20230;-93
2022/12/29 14:57:38;;;;;;;6.43;1.60;;;8.70;99.90;;;;;;5042954;28;20214;-91
2022/12/29 15:00:15;;;;;;;8.67;1.60;;;8.70;99.90;;;;;;5046675;28;20267;-91
2022/12/29 15:02:48;;;;;;;6.87;1.30;;;8.90;99.90;;;;;;5053495;28;20205;-91
2022/12/29 15:05:28;;;;;;;5.33;1.93;;;8.90;99.90;;;;;;5061394;28;20195;-93
2022/12/29 15:07:59;;;;;;;5.07;1.67;;;8.90;99.90;;;;;;5065578;28;20237;-91
2022/12/29 15:10:33;;;;;;;7.60;2.10;;;9.00;99.90;;;;;;5081186;28;20252;-91
2022/12/29 15:13:05;;;;;;;7.37;1.57;;;8.90;99.90;;;;;;5067967;28;20257;-92
2022/12/29 15:15:38;;;;;;;5.33;1.83;;;9.00;99.90;;;;;;5048773;28;20618;-91
2022/12/29 15:18:26;;;;;;;4.17;1.60;;;8.90;99.90;;;;;;5069681;28;20221;-92
2022/12/29 15:20:59;;;;;;;9.20;2.57;;;9.00;99.90;;;;;;5061652;28;20277;-90
2022/12/29 15:23:27;;;;;;;8.65;1.90;;;9.00;99.90;;;;;;5074561;28;20433;-90
2022/12/29 15:25:58;;;;;;;7.67;1.80;;;9.00;99.90;;;;;;5064209;28;20206;-90
2022/12/29 15:28:27;;;;;;;9.43;2.40;;;9.00;99.90;;;;;;5065152;28;20219;-90
2022/12/29 15:30:57;;;;;;;6.90;1.93;;;9.00;99.90;;;;;;5064830;28;20244;-89
2022/12/29 15:33:27;;;;;;;9.23;1.40;;;9.00;99.90;;;;;;5073299;28;20328;-89
2022/12/29 15:36:03;;;;;;;8.77;2.73;;;8.90;99.90;;;;;;5045154;28;20199;-89
2022/12/29 15:38:32;;;;;;;5.87;1.70;;;8.80;99.90;;;;;;5045824;28;20233;-90
2022/12/29 15:41:07;;;;;;;6.80;1.63;;;8.70;99.90;;;;;;5076206;28;20256;-90
2022/12/29 15:43:45;;;;;;;4.10;1.63;;;8.60;99.90;;;;;;5065383;28;20297;-90
2022/12/29 15:46:12;;;;;;;6.30;1.53;;;8.60;99.90;;;;;;5059147;28;20261;-91
2022/12/29 15:48:41;;;;;;;8.73;1.63;;;8.60;99.90;;;;;;5063414;28;20631;-92
2022/12/29 15:51:19;;;;;;;5.27;1.20;;;8.70;99.90;;;;;;5082478;28;20221;-89
2022/12/29 15:53:50;;;;;;;5.97;1.73;;;8.60;99.90;;;;;;5082616;28;20247;-90
2022/12/29 15:56:18;;;;;;;6.73;1.43;;;8.60;99.90;;;;;;5049570;28;20190;-92
2022/12/29 15:58:48;;;;;;;3.93;1.30;;;8.60;99.90;;;;;;5075045;28;20654;-92
2022/12/29 16:01:28;;;;;;;10.17;1.80;;;8.60;99.90;;;;;;5060163;28;20240;-89
2022/12/29 16:03:56;;;;;;;8.63;2.10;;;8.60;99.90;;;;;;5055312;28;20649;-91
2022/12/29 16:06:44;;;;;;;8.13;2.20;;;8.60;99.90;;;;;;5059678;28;20232;-89
2022/12/29 16:09:17;;;;;;;9.50;2.40;;;8.60;99.90;;;;;;5052957;28;20203;-90
2022/12/29 16:11:47;;;;;;;6.83;1.80;;;8.60;99.90;;;;;;5041388;28;20203;-90
2022/12/29 16:14:17;;;;;;;7.27;1.97;;;8.70;99.90;;;;;;5041594;28;20302;-93
2022/12/29 16:16:49;;;;;;;11.37;2.43;;;8.70;99.90;;;;;;5049811;28;20285;-91
2022/12/29 16:19:22;;;;;;;7.43;2.07;;;8.70;99.90;;;;;;5068627;28;20206;-91
2022/12/29 16:21:52;;;;;;;14.47;2.63;;;8.80;99.90;;;;;;5055913;28;20263;-91
2022/12/29 16:24:25;;;;;;;8.80;2.00;;;8.60;99.90;;;;;;5041442;28;20213;-88
2022/12/29 16:27:00;;;;;;;11.23;2.63;;;8.60;99.90;;;;;;5066615;28;20280;-91
2022/12/29 16:29:29;;;;;;;7.10;2.27;;;8.60;99.90;;;;;;5060831;28;20215;-90
2022/12/29 16:32:02;;;;;;;11.47;2.97;;;8.70;99.90;;;;;;5047576;28;20295;-90
2022/12/29 16:34:32;;;;;;;8.90;2.37;;;8.60;99.90;;;;;;5041101;28;20222;-90
2022/12/29 16:37:02;;;;;;;12.85;3.30;;;8.60;99.90;;;;;;5037295;28;20427;-92
2022/12/29 16:39:39;;;;;;;8.97;2.30;;;8.70;99.90;;;;;;5046262;28;20282;-91
2022/12/29 16:42:37;;;;;;;13.33;3.07;;;8.70;99.90;;;;;;5059717;28;20193;-91
2022/12/29 16:46:05;;;;;;;11.90;2.87;;;8.60;99.90;;;;;;5055951;28;20197;-91
2022/12/29 16:48:34;;;;;;;14.67;2.80;;;8.60;99.90;;;;;;5037498;28;20658;-93
2022/12/29 16:51:04;;;;;;;20.00;3.43;;;8.60;99.90;;;;;;5065311;28;20238;-90
2022/12/29 16:53:35;;;;;;;14.00;3.03;;;8.60;99.90;;;;;;5038506;28;20237;-93
2022/12/29 16:56:09;;;;;;;12.40;3.53;;;8.60;99.90;;;;;;5045730;28;20202;-91
2022/12/29 16:58:38;;;;;;;11.70;3.57;;;8.60;99.90;;;;;;5058283;28;20238;-90
2022/12/29 17:01:14;;;;;;;18.40;3.70;;;8.60;99.90;;;;;;5049872;28;20309;-91
2022/12/29 17:03:51;;;;;;;15.40;3.57;;;8.60;99.90;;;;;;5048398;28;20202;-90
2022/12/29 17:06:20;;;;;;;13.23;3.17;;;8.60;99.90;;;;;;5037776;28;20203;-91